Time;durP1;ratioP1;P1;durP2;ratioP2;P2;SDS_P1;SDS_P2;PMS_P1;PMS_P2;Temp;Humidity;BMP_temperature;BMP_pressure;BME280_temperature;BME280_humidity;BME280_pressure;Samples;Min_cycle;Max_cycle;Signal;HPM_P1;HPM_P2
2022/05/30 00:02:12;;;;;;;11.07;1.20;;;7.20;99.90;;;;;;5037656;28;20073;-59
2022/05/30 00:04:39;;;;;;;8.85;1.20;;;7.50;99.90;;;;;;5039933;28;20033;-59
2022/05/30 00:07:06;;;;;;;9.45;1.63;;;7.50;99.90;;;;;;5039407;28;20053;-59
2022/05/30 00:09:33;;;;;;;8.27;1.20;;;7.50;99.90;;;;;;5036550;28;20044;-59
2022/05/30 00:12:00;;;;;;;6.90;1.15;;;7.40;99.90;;;;;;5031016;28;20056;-59
2022/05/30 00:14:26;;;;;;;9.52;1.38;;;7.60;99.90;;;;;;5039561;28;20040;-59
2022/05/30 00:16:52;;;;;;;7.68;0.80;;;7.50;99.90;;;;;;5061509;28;20041;-59
2022/05/30 00:19:18;;;;;;;6.13;0.93;;;7.70;99.90;;;;;;5046386;28;20041;-59
2022/05/30 00:21:44;;;;;;;8.02;1.08;;;7.60;99.90;;;;;;5061712;28;20073;-59
2022/05/30 00:24:11;;;;;;;7.03;1.08;;;7.60;99.90;;;;;;5044114;28;20411;-59
2022/05/30 00:26:37;;;;;;;8.13;1.35;;;7.70;99.90;;;;;;5048884;28;20559;-59
2022/05/30 00:29:05;;;;;;;11.50;1.70;;;7.60;99.90;;;;;;5034423;28;20076;-60
2022/05/30 00:31:33;;;;;;;10.20;2.00;;;7.70;99.90;;;;;;5038995;28;20041;-59
2022/05/30 00:33:59;;;;;;;11.05;1.70;;;7.60;99.90;;;;;;5034263;28;20540;-59
2022/05/30 00:36:25;;;;;;;11.50;2.65;;;7.40;99.90;;;;;;5040634;28;20571;-59
2022/05/30 00:38:51;;;;;;;8.32;1.98;;;7.70;99.90;;;;;;5040243;28;20461;-59
2022/05/30 00:41:17;;;;;;;9.95;1.73;;;7.70;99.90;;;;;;5038683;28;20069;-59
2022/05/30 00:43:47;;;;;;;10.52;1.75;;;7.60;99.90;;;;;;5045049;28;20099;-60
2022/05/30 00:46:15;;;;;;;11.02;2.42;;;7.50;99.90;;;;;;5036196;28;20365;-59
2022/05/30 00:48:53;;;;;;;8.07;2.33;;;7.50;99.90;;;;;;5034196;28;20048;-59
2022/05/30 00:51:28;;;;;;;6.95;1.95;;;7.70;99.90;;;;;;5043152;28;20491;-59
2022/05/30 00:53:56;;;;;;;8.02;2.35;;;7.80;99.90;;;;;;5039121;28;20040;-59
2022/05/30 00:56:37;;;;;;;9.57;2.13;;;7.60;99.90;;;;;;5027984;28;20056;-59
2022/05/30 00:59:04;;;;;;;7.38;2.25;;;7.50;99.90;;;;;;5040151;28;20261;-59
2022/05/30 01:01:32;;;;;;;6.70;1.88;;;7.70;99.90;;;;;;5039487;28;20033;-59
2022/05/30 01:06:47;;;;;;;10.88;2.92;;;7.60;99.90;;;;;;5032017;28;20058;-59
2022/05/30 01:09:18;;;;;;;13.23;3.30;;;7.80;99.90;;;;;;5046290;28;20047;-59
2022/05/30 01:11:55;;;;;;;10.50;3.55;;;7.80;99.90;;;;;;5054570;28;20045;-59
2022/05/30 01:14:23;;;;;;;10.68;3.25;;;7.70;99.90;;;;;;5041409;28;20041;-59
2022/05/30 01:16:49;;;;;;;8.13;3.70;;;7.90;99.90;;;;;;5038460;28;20065;-59
2022/05/30 01:19:27;;;;;;;9.35;3.08;;;7.60;99.90;;;;;;5037240;28;20126;-59
2022/05/30 01:22:14;;;;;;;8.90;3.30;;;7.90;99.90;;;;;;5037651;28;20029;-59
2022/05/30 01:24:54;;;;;;;11.38;3.42;;;7.70;99.90;;;;;;5035609;28;20062;-59
2022/05/30 01:27:41;;;;;;;8.32;3.83;;;7.80;99.90;;;;;;5040426;28;20121;-59
2022/05/30 01:30:13;;;;;;;11.10;4.18;;;7.50;99.90;;;;;;5035293;28;20037;-58
2022/05/30 01:32:39;;;;;;;12.75;3.38;;;7.70;99.90;;;;;;5033574;28;20057;-59
2022/05/30 01:35:06;;;;;;;8.73;3.20;;;7.70;99.90;;;;;;5053239;28;20034;-60
2022/05/30 01:37:31;;;;;;;16.95;3.92;;;7.50;99.90;;;;;;5036312;28;20121;-60
2022/05/30 01:39:57;;;;;;;10.27;3.72;;;7.40;99.90;;;;;;5039785;28;20542;-60
2022/05/30 01:42:23;;;;;;;12.05;4.63;;;7.50;99.90;;;;;;5033180;28;20543;-60
2022/05/30 01:44:49;;;;;;;8.85;3.38;;;7.50;99.90;;;;;;5039580;28;20034;-60
2022/05/30 01:47:14;;;;;;;11.82;4.15;;;7.30;99.90;;;;;;5035494;28;20478;-60
2022/05/30 01:49:40;;;;;;;7.68;2.85;;;7.20;99.90;;;;;;5038904;28;20063;-60
2022/05/30 01:52:06;;;;;;;9.27;3.25;;;7.10;99.90;;;;;;5033379;28;20496;-60
2022/05/30 01:54:32;;;;;;;11.82;3.60;;;7.00;99.90;;;;;;5040025;28;21420;-60
2022/05/30 01:56:58;;;;;;;10.38;3.08;;;6.90;99.90;;;;;;5028895;28;20119;-59
2022/05/30 01:59:23;;;;;;;11.07;3.33;;;7.20;99.90;;;;;;5054159;28;20443;-60
2022/05/30 02:01:49;;;;;;;9.45;3.05;;;6.80;99.90;;;;;;5035150;28;20041;-59
2022/05/30 02:04:16;;;;;;;7.40;3.03;;;6.90;99.90;;;;;;5036627;28;20376;-60
2022/05/30 02:06:41;;;;;;;11.88;3.55;;;6.80;99.90;;;;;;5033228;28;20415;-60
2022/05/30 02:09:07;;;;;;;11.20;4.20;;;6.80;99.90;;;;;;5035225;28;20451;-61
2022/05/30 02:11:34;;;;;;;11.82;3.72;;;6.80;99.90;;;;;;5036759;28;20045;-60
2022/05/30 02:14:00;;;;;;;10.23;3.67;;;6.50;99.90;;;;;;5034146;28;20507;-60
2022/05/30 02:19:11;;;;;;;7.68;3.50;;;6.50;99.90;;;;;;5036291;28;20388;-61
2022/05/30 02:21:37;;;;;;;12.27;4.60;;;6.60;99.90;;;;;;5041972;28;20119;-61
2022/05/30 02:24:06;;;;;;;11.18;4.00;;;6.40;99.90;;;;;;5038452;28;20419;-60
2022/05/30 02:26:34;;;;;;;9.90;3.65;;;6.10;99.90;;;;;;5053788;28;20102;-60
2022/05/30 02:29:00;;;;;;;12.13;4.13;;;6.40;99.90;;;;;;5034932;28;20529;-61
2022/05/30 02:31:27;;;;;;;13.27;4.10;;;6.40;99.90;;;;;;5032897;28;20555;-60
2022/05/30 02:36:39;;;;;;;12.38;4.82;;;6.20;99.90;;;;;;5058958;28;20096;-60
2022/05/30 02:39:06;;;;;;;7.80;4.13;;;6.30;99.90;;;;;;5027771;28;20065;-60
2022/05/30 02:41:32;;;;;;;12.18;5.45;;;6.60;99.90;;;;;;5034336;28;20179;-60
2022/05/30 02:43:58;;;;;;;14.05;4.88;;;6.50;99.90;;;;;;5032018;28;20500;-59
2022/05/30 02:46:24;;;;;;;14.80;5.50;;;6.70;99.90;;;;;;5052699;28;20488;-60
2022/05/30 02:48:50;;;;;;;10.90;5.32;;;6.40;99.90;;;;;;5038173;28;20045;-60
2022/05/30 02:51:16;;;;;;;12.77;5.40;;;6.40;99.90;;;;;;5035789;28;20067;-61
2022/05/30 02:53:41;;;;;;;12.35;5.28;;;6.60;99.90;;;;;;5022351;28;20475;-60
2022/05/30 02:56:10;;;;;;;13.75;4.70;;;6.50;99.90;;;;;;5040106;28;20045;-60
2022/05/30 02:58:36;;;;;;;10.68;4.28;;;6.60;99.90;;;;;;5037858;28;20108;-60
2022/05/30 03:01:02;;;;;;;13.32;4.40;;;6.80;99.90;;;;;;5051212;28;20124;-60
2022/05/30 03:03:28;;;;;;;7.43;4.32;;;6.50;99.90;;;;;;5037120;28;20091;-60
2022/05/30 03:05:54;;;;;;;9.35;4.28;;;6.80;99.90;;;;;;5011401;28;20073;-60
2022/05/30 03:08:20;;;;;;;11.45;4.05;;;6.70;99.90;;;;;;5037678;28;20054;-59
2022/05/30 03:10:46;;;;;;;9.45;4.15;;;6.70;99.90;;;;;;5038271;28;21419;-59
2022/05/30 03:13:12;;;;;;;7.95;3.55;;;6.90;99.90;;;;;;5033995;28;20040;-60
2022/05/30 03:15:38;;;;;;;9.98;3.90;;;6.60;99.90;;;;;;5035947;28;20031;-60
2022/05/30 03:18:05;;;;;;;7.95;3.78;;;6.90;99.90;;;;;;5053241;28;20040;-61
2022/05/30 03:20:31;;;;;;;6.50;2.40;;;6.80;99.90;;;;;;5035608;28;20560;-60
2022/05/30 03:22:57;;;;;;;8.38;3.13;;;6.70;99.90;;;;;;5029494;28;20045;-61
2022/05/30 03:25:23;;;;;;;5.40;2.72;;;6.90;99.90;;;;;;5034071;28;20041;-61
2022/05/30 03:27:51;;;;;;;7.60;2.78;;;6.50;99.90;;;;;;5054907;28;20041;-61
2022/05/30 03:30:17;;;;;;;6.75;2.90;;;6.90;99.90;;;;;;5043647;28;20052;-60
2022/05/30 03:32:43;;;;;;;6.00;2.83;;;6.60;99.90;;;;;;5013059;28;20245;-61
2022/05/30 03:35:11;;;;;;;5.05;2.05;;;6.90;99.90;;;;;;5028399;28;20403;-61
2022/05/30 03:37:38;;;;;;;8.30;2.58;;;7.00;99.90;;;;;;5034636;28;20457;-60
2022/05/30 03:40:06;;;;;;;6.43;2.33;;;6.70;99.90;;;;;;5037416;28;20061;-61
2022/05/30 03:42:32;;;;;;;6.85;2.55;;;6.70;99.90;;;;;;5040291;28;20493;-61
2022/05/30 03:44:57;;;;;;;7.45;2.38;;;6.90;99.90;;;;;;5036327;28;20696;-61
2022/05/30 03:47:23;;;;;;;6.45;2.22;;;6.80;99.90;;;;;;5033928;28;20046;-62
2022/05/30 03:49:49;;;;;;;6.00;2.22;;;6.80;99.90;;;;;;5031967;28;20080;-62
2022/05/30 03:52:15;;;;;;;5.78;2.30;;;7.00;99.90;;;;;;5038854;28;20446;-63
2022/05/30 03:54:41;;;;;;;6.90;2.55;;;7.00;99.90;;;;;;5032710;28;20530;-62
2022/05/30 03:57:07;;;;;;;8.73;2.80;;;7.10;99.90;;;;;;5034735;28;20297;-62
2022/05/30 03:59:32;;;;;;;9.18;2.25;;;7.20;99.90;;;;;;5031494;28;20042;-62
2022/05/30 04:01:58;;;;;;;9.68;2.28;;;7.00;99.90;;;;;;5048712;28;20127;-62
2022/05/30 04:04:24;;;;;;;6.35;2.72;;;6.90;99.90;;;;;;5036863;28;20452;-63
2022/05/30 04:06:49;;;;;;;11.93;2.33;;;7.20;99.90;;;;;;5037692;28;20068;-62
2022/05/30 04:09:15;;;;;;;12.15;2.83;;;7.00;99.90;;;;;;5025345;28;20052;-62
2022/05/30 04:11:41;;;;;;;6.72;2.67;;;6.80;99.90;;;;;;5054535;28;20025;-62
2022/05/30 04:14:06;;;;;;;7.60;2.40;;;7.10;99.90;;;;;;5030772;28;20042;-62
2022/05/30 04:16:32;;;;;;;8.10;3.00;;;7.10;99.90;;;;;;5036667;28;20053;-63
2022/05/30 04:19:01;;;;;;;7.13;2.92;;;6.80;99.90;;;;;;5038451;28;20132;-63
2022/05/30 04:21:27;;;;;;;5.72;2.53;;;6.80;99.90;;;;;;5050521;28;20503;-61
2022/05/30 04:23:53;;;;;;;8.73;3.30;;;6.90;99.90;;;;;;5039679;28;20040;-61
2022/05/30 04:26:18;;;;;;;3.25;2.33;;;6.70;99.90;;;;;;5035973;28;20723;-62
2022/05/30 04:28:44;;;;;;;5.13;2.72;;;6.70;99.90;;;;;;5051393;28;20076;-62
2022/05/30 04:31:12;;;;;;;8.10;2.72;;;6.80;99.90;;;;;;5034419;28;20495;-62
2022/05/30 04:33:40;;;;;;;6.72;2.50;;;6.60;99.90;;;;;;5051846;28;20041;-62
2022/05/30 04:36:12;;;;;;;7.78;2.80;;;6.80;99.90;;;;;;5053026;28;20054;-62
2022/05/30 04:38:39;;;;;;;13.90;3.13;;;6.90;99.90;;;;;;5037085;28;20048;-61
2022/05/30 04:41:05;;;;;;;7.57;2.60;;;6.80;99.90;;;;;;5035536;28;20033;-62
2022/05/30 04:43:31;;;;;;;7.38;2.72;;;6.90;99.90;;;;;;5036218;28;20118;-62
2022/05/30 04:46:20;;;;;;;6.13;2.80;;;6.60;99.90;;;;;;5035091;28;20049;-62
2022/05/30 04:48:46;;;;;;;10.15;3.13;;;6.80;99.90;;;;;;5040673;28;20140;-61
2022/05/30 04:51:11;;;;;;;7.75;2.28;;;7.10;99.90;;;;;;5037333;28;20132;-61
2022/05/30 04:53:37;;;;;;;7.75;2.70;;;6.90;99.90;;;;;;5035598;28;20055;-61
2022/05/30 04:56:04;;;;;;;6.47;2.50;;;7.30;99.90;;;;;;5039828;28;20044;-62
2022/05/30 04:58:32;;;;;;;7.93;2.60;;;7.10;99.90;;;;;;5036164;28;20033;-62
2022/05/30 05:01:01;;;;;;;5.68;2.40;;;7.50;99.90;;;;;;5053615;28;20527;-63
2022/05/30 05:03:32;;;;;;;8.93;2.78;;;7.60;99.90;;;;;;5038540;28;20554;-63
2022/05/30 05:06:07;;;;;;;5.63;2.28;;;7.70;99.90;;;;;;5049272;28;20049;-62
2022/05/30 05:08:53;;;;;;;4.15;2.40;;;7.60;99.90;;;;;;5038372;28;20060;-62
2022/05/30 05:11:30;;;;;;;4.88;2.42;;;7.70;99.90;;;;;;5034664;28;20680;-62
2022/05/30 05:13:57;;;;;;;7.55;2.28;;;7.90;99.90;;;;;;5039398;28;20048;-62
2022/05/30 05:16:27;;;;;;;6.50;1.90;;;8.00;99.90;;;;;;5041430;28;20040;-62
2022/05/30 05:18:54;;;;;;;4.78;1.40;;;8.40;99.90;;;;;;5034076;28;20037;-62
2022/05/30 05:21:26;;;;;;;5.60;1.70;;;8.50;99.90;;;;;;5057037;28;20037;-63
2022/05/30 05:23:53;;;;;;;6.00;1.30;;;8.60;99.90;;;;;;5032441;28;20396;-62
2022/05/30 05:26:19;;;;;;;4.55;1.17;;;8.90;99.90;;;;;;5038472;28;20045;-63
2022/05/30 05:28:46;;;;;;;7.75;1.88;;;8.80;99.90;;;;;;5033735;28;20135;-62
2022/05/30 05:31:22;;;;;;;6.75;0.93;;;9.00;99.90;;;;;;5039455;28;20052;-62
2022/05/30 05:33:48;;;;;;;4.15;0.80;;;9.10;99.90;;;;;;5042778;28;20037;-63
2022/05/30 05:36:28;;;;;;;6.38;1.00;;;9.00;99.90;;;;;;5040398;28;20049;-63
2022/05/30 05:38:55;;;;;;;5.63;0.90;;;9.10;99.90;;;;;;5051827;28;20372;-62
2022/05/30 05:41:24;;;;;;;8.48;1.00;;;8.90;99.90;;;;;;5042303;28;20414;-62
2022/05/30 05:43:53;;;;;;;5.55;0.93;;;8.90;99.90;;;;;;5029543;28;20041;-62
2022/05/30 05:46:24;;;;;;;3.30;0.80;;;9.10;99.90;;;;;;5030888;28;20037;-62
2022/05/30 05:48:52;;;;;;;4.72;1.17;;;8.90;99.90;;;;;;5036174;28;20184;-62
2022/05/30 05:51:19;;;;;;;3.47;0.80;;;9.20;99.90;;;;;;5014622;28;20119;-61
2022/05/30 05:53:46;;;;;;;4.30;1.10;;;9.00;99.90;;;;;;5043868;28;20052;-61
2022/05/30 05:56:14;;;;;;;3.72;0.98;;;9.20;99.90;;;;;;5029624;28;20419;-61
2022/05/30 05:58:40;;;;;;;5.35;0.98;;;9.30;99.90;;;;;;5039808;28;20401;-61
2022/05/30 06:01:08;;;;;;;6.13;0.73;;;9.30;99.90;;;;;;5036818;28;20126;-61
2022/05/30 06:03:34;;;;;;;3.92;0.82;;;9.30;99.90;;;;;;5030501;28;20339;-61
2022/05/30 06:05:59;;;;;;;8.40;0.82;;;9.50;99.90;;;;;;5018111;28;20037;-60
2022/05/30 06:08:25;;;;;;;2.63;0.60;;;9.50;99.90;;;;;;5013607;28;20076;-61
2022/05/30 06:11:08;;;;;;;4.18;0.55;;;9.70;99.90;;;;;;5051066;28;20407;-61
2022/05/30 06:13:36;;;;;;;1.80;0.52;;;9.60;99.90;;;;;;5036034;28;20092;-61
2022/05/30 06:16:05;;;;;;;2.70;0.70;;;9.70;99.90;;;;;;5017520;28;20171;-60
2022/05/30 06:18:31;;;;;;;5.28;0.70;;;9.60;99.90;;;;;;5023009;28;20118;-60
2022/05/30 06:20:59;;;;;;;1.98;0.52;;;9.80;99.90;;;;;;5034044;28;20076;-60
2022/05/30 06:23:24;;;;;;;4.90;0.38;;;9.80;99.90;;;;;;5035886;28;20091;-61
2022/05/30 06:25:50;;;;;;;4.15;0.40;;;9.80;99.90;;;;;;5042088;28;20517;-61
2022/05/30 06:28:16;;;;;;;2.03;0.35;;;9.90;99.90;;;;;;5047479;28;20295;-61
2022/05/30 06:30:42;;;;;;;2.55;0.40;;;9.90;99.90;;;;;;5046200;28;20057;-61
2022/05/30 06:33:07;;;;;;;3.75;0.40;;;10.20;99.90;;;;;;5036840;28;20044;-61
2022/05/30 06:35:33;;;;;;;3.60;0.40;;;10.30;99.90;;;;;;5053368;28;20326;-59
2022/05/30 06:37:59;;;;;;;2.92;0.45;;;10.40;99.90;;;;;;5037114;28;20069;-59
2022/05/30 06:40:25;;;;;;;2.85;0.40;;;10.70;99.90;;;;;;5043092;28;20041;-59
2022/05/30 06:42:51;;;;;;;2.13;0.43;;;10.90;99.90;;;;;;5023951;28;20055;-60
2022/05/30 06:45:17;;;;;;;2.20;0.30;;;10.90;99.90;;;;;;5057673;28;20144;-60
2022/05/30 06:47:42;;;;;;;2.72;0.50;;;11.00;99.90;;;;;;5041481;28;20475;-61
2022/05/30 06:50:09;;;;;;;3.25;0.43;;;11.40;99.90;;;;;;5012113;28;20049;-60
2022/05/30 06:52:35;;;;;;;7.68;1.17;;;11.60;99.90;;;;;;5031017;28;20488;-60
2022/05/30 06:55:01;;;;;;;1.73;0.50;;;11.70;99.90;;;;;;5029686;28;20060;-60
2022/05/30 07:00:11;;;;;;;2.22;0.20;;;11.60;99.90;;;;;;5042374;28;20081;-60
2022/05/30 07:02:37;;;;;;;3.30;0.30;;;11.20;99.90;;;;;;5035178;28;20124;-61
2022/05/30 07:05:04;;;;;;;5.47;0.38;;;11.10;99.90;;;;;;5036580;28;20045;-61
2022/05/30 07:07:30;;;;;;;1.80;0.40;;;11.30;99.90;;;;;;5020723;28;20049;-61
2022/05/30 07:09:56;;;;;;;1.85;0.17;;;11.80;99.90;;;;;;5029524;28;20044;-61
2022/05/30 07:12:21;;;;;;;0.75;0.10;;;12.20;99.90;;;;;;5027368;28;20499;-61
2022/05/30 07:14:47;;;;;;;0.65;0.10;;;12.50;99.90;;;;;;5053463;28;20046;-61
2022/05/30 07:17:13;;;;;;;8.40;0.90;;;12.50;99.90;;;;;;5011697;28;20045;-61
2022/05/30 07:19:39;;;;;;;0.90;0.10;;;12.50;99.90;;;;;;5051630;28;20079;-60
2022/05/30 07:22:04;;;;;;;12.77;0.50;;;12.50;99.90;;;;;;5039313;28;20033;-60
2022/05/30 07:24:30;;;;;;;1.38;0.10;;;12.50;99.90;;;;;;5036448;28;20039;-60
2022/05/30 07:26:56;;;;;;;0.90;0.00;;;12.20;99.90;;;;;;5024472;28;20119;-61
2022/05/30 07:29:24;;;;;;;9.55;0.45;;;12.20;99.90;;;;;;5028832;28;20052;-60
2022/05/30 07:31:50;;;;;;;3.90;0.10;;;12.40;99.90;;;;;;5027085;28;20041;-60
2022/05/30 07:34:16;;;;;;;1.13;0.00;;;12.50;99.90;;;;;;5033835;28;20120;-61
2022/05/30 07:36:41;;;;;;;1.23;0.05;;;12.50;99.90;;;;;;5040130;28;20465;-60
2022/05/30 07:39:07;;;;;;;0.73;0.00;;;12.40;99.90;;;;;;5047717;28;20064;-60
2022/05/30 07:41:39;;;;;;;0.47;0.03;;;12.30;99.90;;;;;;5047605;28;20502;-60
2022/05/30 07:44:05;;;;;;;0.43;0.10;;;12.40;99.90;;;;;;5047972;28;20436;-60
2022/05/30 07:46:31;;;;;;;2.25;0.10;;;12.30;99.90;;;;;;5044914;28;20036;-60
2022/05/30 07:48:57;;;;;;;0.38;0.00;;;12.30;99.90;;;;;;5038797;28;20072;-59
2022/05/30 07:51:22;;;;;;;1.15;0.00;;;12.30;99.90;;;;;;5019798;28;20047;-60
2022/05/30 07:53:48;;;;;;;0.38;0.10;;;12.50;99.90;;;;;;5018908;28;20124;-59
2022/05/30 07:56:16;;;;;;;0.82;0.03;;;13.00;99.90;;;;;;5037991;28;20410;-60
2022/05/30 07:58:42;;;;;;;0.70;0.03;;;13.40;99.90;;;;;;5053922;28;20089;-60
2022/05/30 08:01:13;;;;;;;0.98;0.10;;;13.60;99.90;;;;;;5046126;28;20415;-60
2022/05/30 08:03:38;;;;;;;1.48;0.00;;;13.80;99.90;;;;;;5047083;28;20462;-59
2022/05/30 08:06:06;;;;;;;1.05;0.00;;;14.00;99.90;;;;;;5045042;28;20036;-60
2022/05/30 08:08:32;;;;;;;0.60;0.00;;;14.20;99.90;;;;;;5030381;28;20237;-58
2022/05/30 08:10:58;;;;;;;1.90;0.10;;;14.40;99.90;;;;;;5048385;28;20352;-58
2022/05/30 08:13:23;;;;;;;1.23;0.10;;;14.30;99.90;;;;;;5033271;28;20048;-59
2022/05/30 08:15:51;;;;;;;1.17;0.10;;;14.30;99.90;;;;;;5056915;28;20033;-58
2022/05/30 08:18:18;;;;;;;0.63;0.10;;;14.30;99.90;;;;;;5054005;28;20096;-58
2022/05/30 08:20:45;;;;;;;1.27;0.10;;;14.10;99.90;;;;;;5039738;28;20369;-58
2022/05/30 08:23:11;;;;;;;1.17;0.10;;;14.40;99.90;;;;;;5040606;28;20032;-59
2022/05/30 08:25:38;;;;;;;0.98;0.10;;;14.90;99.90;;;;;;5029238;28;20099;-59
2022/05/30 08:28:05;;;;;;;0.60;0.10;;;14.80;99.90;;;;;;5036866;28;20513;-58
2022/05/30 08:30:31;;;;;;;1.40;0.10;;;14.30;99.90;;;;;;5041017;28;20079;-58
2022/05/30 08:32:56;;;;;;;2.33;0.10;;;14.00;99.90;;;;;;5037740;28;20077;-58
2022/05/30 08:35:23;;;;;;;1.15;0.20;;;13.60;99.90;;;;;;5032755;28;20049;-60
2022/05/30 08:37:49;;;;;;;2.50;0.10;;;13.80;99.90;;;;;;5014760;28;20134;-59
2022/05/30 08:43:14;;;;;;;1.33;0.10;;;15.20;99.90;;;;;;5058679;28;20042;-60
2022/05/30 08:45:40;;;;;;;1.52;0.10;;;15.30;99.90;;;;;;5044657;28;20051;-59
2022/05/30 08:48:12;;;;;;;9.07;0.50;;;15.10;99.90;;;;;;5049300;28;20048;-59
2022/05/30 08:50:44;;;;;;;2.17;0.10;;;14.80;99.90;;;;;;5048042;28;20522;-59
2022/05/30 08:53:22;;;;;;;1.08;0.20;;;14.30;99.90;;;;;;5029552;28;20049;-59
2022/05/30 08:55:55;;;;;;;1.20;0.10;;;13.80;99.90;;;;;;5046927;28;20053;-59
2022/05/30 08:58:36;;;;;;;2.00;0.10;;;13.20;99.90;;;;;;5040394;28;20041;-59
2022/05/30 09:01:10;;;;;;;1.80;0.10;;;12.70;99.90;;;;;;5049920;28;20069;-59
2022/05/30 09:03:41;;;;;;;2.50;0.10;;;12.30;99.90;;;;;;5040568;28;20057;-59
2022/05/30 09:06:22;;;;;;;2.00;0.17;;;11.90;99.90;;;;;;5046607;28;20049;-60
2022/05/30 09:09:13;;;;;;;1.25;0.20;;;11.80;99.90;;;;;;5027330;28;20052;-59
2022/05/30 09:11:48;;;;;;;1.77;0.20;;;11.70;99.90;;;;;;5061415;28;20514;-59
2022/05/30 09:14:31;;;;;;;2.00;0.20;;;11.90;99.90;;;;;;5032354;28;20049;-58
2022/05/30 09:17:01;;;;;;;1.85;0.10;;;11.90;99.90;;;;;;5043874;28;20057;-59
2022/05/30 09:19:27;;;;;;;2.72;0.25;;;12.10;99.90;;;;;;5030068;28;20099;-59
2022/05/30 09:22:01;;;;;;;1.83;0.20;;;12.20;99.90;;;;;;5029654;28;20037;-59
2022/05/30 09:24:29;;;;;;;1.45;0.13;;;12.30;99.90;;;;;;5032192;28;20146;-59
2022/05/30 09:26:57;;;;;;;1.80;0.10;;;12.50;99.90;;;;;;5032657;28;20045;-59
2022/05/30 09:29:29;;;;;;;0.98;0.10;;;13.10;99.90;;;;;;5041268;28;20040;-59
2022/05/30 09:32:14;;;;;;;2.22;0.57;;;13.50;99.90;;;;;;5045156;28;20179;-59
2022/05/30 09:34:47;;;;;;;2.13;0.20;;;13.50;99.90;;;;;;5041881;28;20093;-59
2022/05/30 09:37:30;;;;;;;2.70;0.20;;;13.70;99.90;;;;;;5032631;28;20049;-59
2022/05/30 09:39:57;;;;;;;1.92;0.17;;;14.00;99.90;;;;;;5016562;28;20674;-59
2022/05/30 09:42:37;;;;;;;2.00;0.40;;;13.70;99.90;;;;;;5000390;28;20068;-59
2022/05/30 09:45:15;;;;;;;1.77;0.20;;;14.00;99.90;;;;;;5030642;28;20046;-60
2022/05/30 09:48:11;;;;;;;0.93;0.17;;;14.60;99.90;;;;;;5062346;28;20044;-59
2022/05/30 09:50:46;;;;;;;1.25;0.20;;;15.30;99.90;;;;;;5047230;28;20041;-59
2022/05/30 09:53:12;;;;;;;4.35;0.20;;;15.60;99.90;;;;;;5042033;28;20044;-59
2022/05/30 09:55:49;;;;;;;2.25;0.20;;;15.60;99.90;;;;;;5030664;28;20030;-60
2022/05/30 09:58:15;;;;;;;1.35;0.10;;;14.80;99.90;;;;;;5053058;28;20550;-60
2022/05/30 10:00:53;;;;;;;1.52;0.20;;;14.50;99.90;;;;;;5048125;28;20121;-60
2022/05/30 10:03:32;;;;;;;1.13;0.10;;;13.90;99.90;;;;;;5042186;28;20116;-60
2022/05/30 10:06:30;;;;;;;1.52;0.30;;;13.30;99.90;;;;;;5057096;28;20530;-60
2022/05/30 10:09:21;;;;;;;2.00;0.20;;;12.90;99.90;;;;;;5002446;28;20053;-61
2022/05/30 10:11:58;;;;;;;3.25;0.20;;;12.60;99.90;;;;;;5048725;28;20038;-59
2022/05/30 10:14:27;;;;;;;1.77;0.20;;;12.30;99.90;;;;;;5036911;28;20411;-59
2022/05/30 10:16:58;;;;;;;2.42;0.20;;;12.10;99.90;;;;;;5059315;28;20418;-60
2022/05/30 10:19:31;;;;;;;3.58;0.25;;;12.20;99.90;;;;;;5038179;28;20498;-60
2022/05/30 10:28:49;;;;;;;7.30;0.38;;;12.20;99.90;;;;;;5030595;28;20042;-58
2022/05/30 10:31:47;;;;;;;2.45;0.20;;;12.00;99.90;;;;;;5043403;28;20033;-59
2022/05/30 10:34:34;;;;;;;3.92;0.20;;;11.90;99.90;;;;;;5035241;28;20088;-59
2022/05/30 10:37:22;;;;;;;2.10;0.20;;;11.90;99.90;;;;;;5011625;28;20041;-59
2022/05/30 10:40:04;;;;;;;1.35;0.20;;;11.70;99.90;;;;;;5029721;28;20037;-59
2022/05/30 10:42:39;;;;;;;1.38;0.30;;;11.60;99.90;;;;;;5051893;28;20049;-60
2022/05/30 10:45:18;;;;;;;1.52;0.20;;;11.50;99.90;;;;;;5034285;28;20076;-60
2022/05/30 10:47:48;;;;;;;14.80;0.88;;;11.40;99.90;;;;;;5035383;28;20579;-61
2022/05/30 10:50:18;;;;;;;6.10;0.40;;;11.30;99.90;;;;;;5060081;28;20049;-61
2022/05/30 10:52:50;;;;;;;2.20;0.40;;;11.30;99.90;;;;;;5058987;28;20064;-62
2022/05/30 10:55:25;;;;;;;4.50;0.40;;;11.30;99.90;;;;;;5058294;28;20377;-59
2022/05/30 10:57:55;;;;;;;1.92;0.20;;;11.30;99.90;;;;;;5028258;28;20056;-61
2022/05/30 11:00:25;;;;;;;2.30;0.30;;;11.40;99.90;;;;;;5059672;28;20072;-61
2022/05/30 11:03:15;;;;;;;2.75;0.30;;;11.60;99.90;;;;;;5057337;28;20171;-61
2022/05/30 11:05:43;;;;;;;3.08;0.20;;;11.70;99.90;;;;;;5032836;28;20494;-61
2022/05/30 11:08:29;;;;;;;3.08;0.38;;;11.70;99.90;;;;;;5029016;28;20355;-61
2022/05/30 11:11:05;;;;;;;2.60;0.30;;;12.00;99.90;;;;;;5031346;28;20049;-61
2022/05/30 11:13:39;;;;;;;17.73;1.00;;;12.10;99.90;;;;;;5056445;28;20048;-62
2022/05/30 11:16:31;;;;;;;3.15;0.30;;;12.30;99.90;;;;;;5028872;28;20045;-62
2022/05/30 11:19:24;;;;;;;2.17;0.30;;;12.50;99.90;;;;;;5018447;28;20577;-61
2022/05/30 11:22:40;;;;;;;2.53;0.20;;;12.70;99.90;;;;;;5024057;28;20120;-61
2022/05/30 11:25:12;;;;;;;6.22;0.55;;;12.90;99.90;;;;;;4987610;28;20042;-61
2022/05/30 11:27:43;;;;;;;1.02;0.10;;;13.50;99.90;;;;;;5002629;28;20544;-59
2022/05/30 11:30:31;;;;;;;3.08;0.30;;;13.60;99.90;;;;;;5000393;28;20392;-60
2022/05/30 11:33:25;;;;;;;13.30;0.70;;;13.70;99.90;;;;;;5037366;28;20068;-60
2022/05/30 11:35:59;;;;;;;1.25;0.10;;;14.10;99.90;;;;;;5043889;28;20068;-60
2022/05/30 11:38:55;;;;;;;2.80;0.20;;;14.30;99.90;;;;;;5038885;28;20045;-60
2022/05/30 11:41:42;;;;;;;1.65;0.20;;;14.80;99.90;;;;;;5027574;28;20038;-60
2022/05/30 11:44:27;;;;;;;2.15;0.20;;;15.50;99.90;;;;;;5045871;28;20111;-60
2022/05/30 11:47:17;;;;;;;2.63;0.10;;;16.10;99.90;;;;;;5033014;28;20076;-60
2022/05/30 11:49:53;;;;;;;4.32;0.20;;;16.40;99.90;;;;;;5050711;28;20033;-60
2022/05/30 11:52:50;;;;;;;3.22;0.13;;;16.40;99.90;;;;;;5035036;28;20049;-61
2022/05/30 11:55:22;;;;;;;1.13;0.20;;;15.80;99.90;;;;;;5033965;28;20463;-60
2022/05/30 11:57:55;;;;;;;2.53;0.20;;;14.80;99.90;;;;;;5032587;28;20454;-61
2022/05/30 12:00:21;;;;;;;;;;;14.10;99.90;;;;;;5033933;28;20033;-60
2022/05/30 12:02:58;;;;;;;1.50;0.10;;;13.30;99.90;;;;;;5032123;28;20003;-60
2022/05/30 12:05:33;;;;;;;2.38;0.20;;;12.90;99.90;;;;;;5041941;28;20041;-61
2022/05/30 12:08:08;;;;;;;1.02;0.15;;;12.70;99.90;;;;;;5063358;28;20049;-60
2022/05/30 12:10:43;;;;;;;1.63;0.20;;;12.40;99.90;;;;;;5042318;28;20037;-61
2022/05/30 12:13:28;;;;;;;2.75;0.10;;;12.30;99.90;;;;;;5035710;28;20556;-60
2022/05/30 12:15:59;;;;;;;1.25;0.10;;;12.20;99.90;;;;;;5037641;28;20049;-61
2022/05/30 12:24:18;;;;;;;2.25;0.10;;;12.50;99.90;;;;;;5020264;28;20148;-61
2022/05/30 12:26:52;;;;;;;0.52;0.10;;;12.70;99.90;;;;;;5045329;28;20692;-61
2022/05/30 12:29:39;;;;;;;2.17;0.10;;;13.10;99.90;;;;;;5049160;28;20053;-60
2022/05/30 12:32:17;;;;;;;0.70;0.10;;;13.40;99.90;;;;;;5032457;28;20079;-61
2022/05/30 12:35:01;;;;;;;2.10;0.10;;;13.70;99.90;;;;;;5030507;28;20051;-60
2022/05/30 12:37:43;;;;;;;0.70;0.10;;;14.00;99.90;;;;;;5031422;28;20479;-61
2022/05/30 12:40:26;;;;;;;3.47;0.10;;;14.50;99.90;;;;;;5063684;28;20083;-61
2022/05/30 12:43:10;;;;;;;2.47;0.10;;;15.00;99.90;;;;;;5029546;28;20033;-61
2022/05/30 12:45:41;;;;;;;0.40;0.10;;;15.20;99.90;;;;;;5054286;28;20468;-61
2022/05/30 12:48:20;;;;;;;7.60;0.10;;;15.90;99.90;;;;;;5031858;28;20313;-61
2022/05/30 12:50:52;;;;;;;0.70;0.10;;;16.20;99.90;;;;;;5059757;28;20438;-62
2022/05/30 12:53:23;;;;;;;1.45;0.10;;;16.50;99.90;;;;;;5031385;28;20045;-62
2022/05/30 12:55:54;;;;;;;2.00;0.10;;;16.70;99.90;;;;;;5030972;28;20480;-61
2022/05/30 12:58:33;;;;;;;2.10;0.28;;;16.60;99.90;;;;;;5044694;28;20033;-62
2022/05/30 13:01:23;;;;;;;1.77;0.10;;;16.20;99.90;;;;;;5048101;28;20049;-62
2022/05/30 13:04:05;;;;;;;1.00;0.10;;;15.20;99.90;;;;;;5030121;28;20034;-61
2022/05/30 13:06:31;;;;;;;2.35;0.10;;;14.30;99.90;;;;;;5052819;28;20045;-61
2022/05/30 13:09:11;;;;;;;1.08;0.10;;;13.80;99.90;;;;;;5059918;28;20417;-61
2022/05/30 13:11:55;;;;;;;1.40;0.10;;;13.60;99.90;;;;;;5030191;28;20048;-61
2022/05/30 13:14:37;;;;;;;0.85;0.20;;;13.50;99.90;;;;;;5045331;28;20045;-61
2022/05/30 13:17:23;;;;;;;1.65;0.10;;;13.30;99.90;;;;;;5047589;28;20480;-61
2022/05/30 13:19:58;;;;;;;1.92;0.10;;;13.10;99.90;;;;;;5049034;28;20041;-61
2022/05/30 13:22:34;;;;;;;0.85;0.10;;;12.90;99.90;;;;;;5048517;28;20037;-61
2022/05/30 13:25:01;;;;;;;0.70;0.10;;;12.80;99.90;;;;;;5037361;28;20052;-61
2022/05/30 13:27:27;;;;;;;1.08;0.10;;;12.70;99.90;;;;;;5046516;28;20487;-61
2022/05/30 13:29:53;;;;;;;4.40;0.40;;;12.60;99.90;;;;;;5031876;28;20429;-60
2022/05/30 13:32:22;;;;;;;1.08;0.35;;;12.60;99.90;;;;;;5015932;28;20049;-61
2022/05/30 13:34:52;;;;;;;1.30;0.20;;;12.50;99.90;;;;;;5024543;28;20391;-60
2022/05/30 13:37:34;;;;;;;2.33;0.20;;;12.30;99.90;;;;;;5045228;28;20040;-61